createdAt,value
2023-05-05T00:02:21.940Z,43.80
2023-05-05T00:04:48.844Z,43.66
2023-05-05T00:07:15.410Z,43.70
2023-05-05T00:09:42.903Z,43.71
2023-05-05T00:12:09.504Z,43.71
2023-05-05T00:14:36.060Z,43.77
2023-05-05T00:17:04.200Z,43.84
2023-05-05T00:19:31.233Z,43.78
2023-05-05T00:21:57.770Z,43.85
2023-05-05T00:24:24.294Z,43.92
2023-05-05T00:26:51.184Z,43.90
2023-05-05T00:29:17.822Z,43.87
2023-05-05T00:31:44.324Z,43.98
2023-05-05T00:34:11.094Z,44.01
2023-05-05T00:36:38.684Z,44.07
2023-05-05T00:39:05.629Z,44.06
2023-05-05T00:41:32.222Z,44.19
2023-05-05T00:43:58.756Z,44.31
2023-05-05T00:46:30.729Z,44.32
2023-05-05T00:48:57.972Z,44.35
2023-05-05T00:51:26.314Z,44.35
2023-05-05T00:53:53.309Z,44.46
2023-05-05T00:56:27.373Z,44.38
2023-05-05T00:58:54.195Z,44.50
2023-05-05T01:01:20.725Z,44.50
2023-05-05T01:03:47.402Z,44.58
2023-05-05T01:07:03.988Z,44.52
2023-05-05T01:09:42.025Z,44.59
2023-05-05T01:12:21.144Z,44.60
2023-05-05T01:14:58.689Z,44.59
2023-05-05T01:17:34.951Z,44.65
2023-05-05T01:20:13.921Z,44.70
2023-05-05T01:22:47.639Z,44.75
2023-05-05T01:25:45.402Z,44.77
2023-05-05T01:28:36.920Z,44.79
2023-05-05T01:31:23.522Z,44.96
2023-05-05T01:33:57.268Z,44.79
2023-05-05T01:36:36.175Z,44.66
2023-05-05T01:39:04.463Z,44.72
2023-05-05T01:41:43.251Z,44.80
2023-05-05T01:44:11.944Z,44.96
2023-05-05T01:46:38.450Z,45.05
2023-05-05T01:49:09.934Z,44.97
2023-05-05T01:51:38.062Z,45.10
2023-05-05T01:54:09.947Z,45.17
2023-05-05T01:56:40.034Z,45.40
2023-05-05T01:59:08.808Z,45.40
2023-05-05T02:01:41.629Z,45.47
2023-05-05T02:04:11.914Z,45.69
2023-05-05T02:06:40.961Z,45.76
2023-05-05T02:09:11.790Z,45.89
2023-05-05T02:11:39.533Z,45.78
2023-05-05T02:14:07.965Z,45.92
2023-05-05T02:16:58.393Z,45.97
2023-05-05T02:19:30.955Z,46.10
2023-05-05T02:21:58.147Z,46.13
2023-05-05T02:24:26.489Z,46.29
2023-05-05T02:26:54.811Z,46.32
2023-05-05T02:29:31.267Z,46.39
2023-05-05T02:32:02.630Z,46.55
2023-05-05T02:34:34.401Z,46.68
2023-05-05T02:37:04.945Z,46.72
2023-05-05T02:39:47.980Z,46.72
2023-05-05T02:42:21.759Z,46.66
2023-05-05T02:44:51.755Z,46.66
2023-05-05T02:47:20.850Z,46.81
2023-05-05T02:49:48.110Z,46.79
2023-05-05T02:52:14.761Z,46.96
2023-05-05T02:54:42.138Z,47.02
2023-05-05T02:57:18.621Z,47.22
2023-05-05T03:00:02.540Z,47.43
2023-05-05T03:02:44.719Z,47.47
2023-05-05T03:05:23.572Z,47.58
2023-05-05T03:08:04.019Z,47.76
2023-05-05T03:10:36.416Z,47.81
2023-05-05T03:13:06.945Z,47.88
2023-05-05T03:15:48.373Z,47.93
2023-05-05T03:18:18.209Z,47.87
2023-05-05T03:20:48.673Z,47.89
2023-05-05T03:23:20.708Z,47.97
2023-05-05T03:25:49.024Z,48.10
2023-05-05T03:28:27.178Z,48.18
2023-05-05T03:30:54.789Z,48.25
2023-05-05T03:33:25.853Z,48.31
2023-05-05T03:35:52.410Z,48.29
2023-05-05T03:38:18.928Z,48.41
2023-05-05T03:40:45.595Z,48.44
2023-05-05T03:43:14.825Z,48.44
2023-05-05T03:45:41.548Z,48.50
2023-05-05T03:48:09.708Z,48.55
2023-05-05T03:50:37.860Z,48.50
2023-05-05T03:53:04.480Z,48.48
2023-05-05T03:55:31.058Z,48.63
2023-05-05T03:57:57.569Z,48.61
2023-05-05T04:00:24.072Z,48.63
2023-05-05T04:02:50.796Z,48.69
2023-05-05T04:05:19.782Z,48.61
2023-05-05T04:07:46.396Z,48.59
2023-05-05T04:10:12.997Z,48.60
2023-05-05T04:12:39.625Z,48.65
2023-05-05T04:15:06.883Z,48.68
2023-05-05T04:17:34.093Z,48.55
2023-05-05T04:20:01.294Z,48.62
2023-05-05T04:22:29.999Z,48.74
2023-05-05T04:24:57.004Z,48.85
2023-05-05T04:27:26.174Z,48.71
2023-05-05T04:29:53.543Z,48.80
2023-05-05T04:32:20.169Z,48.87
2023-05-05T04:34:48.367Z,48.86
2023-05-05T04:37:15.991Z,48.99
2023-05-05T04:39:42.942Z,49.01
2023-05-05T04:42:10.286Z,48.98
2023-05-05T04:44:36.877Z,49.05
2023-05-05T04:47:04.257Z,49.04
2023-05-05T04:49:32.022Z,49.07
2023-05-05T04:51:59.214Z,49.03
2023-05-05T04:54:25.974Z,49.00
2023-05-05T04:56:52.620Z,48.94
2023-05-05T04:59:19.209Z,48.83
2023-05-05T05:01:46.486Z,48.77
2023-05-05T05:04:13.829Z,48.70
2023-05-05T05:06:40.427Z,48.68
2023-05-05T05:09:07.062Z,48.61
2023-05-05T05:11:33.638Z,48.55
2023-05-05T05:14:03.759Z,48.55
2023-05-05T05:16:30.514Z,48.46
2023-05-05T05:18:57.121Z,48.40
2023-05-05T05:21:23.789Z,48.36
2023-05-05T05:23:50.915Z,48.30
2023-05-05T05:26:18.242Z,48.16
2023-05-05T05:28:44.918Z,48.06
2023-05-05T05:31:12.004Z,47.91
2023-05-05T05:33:45.658Z,47.68
2023-05-05T05:36:12.845Z,47.66
2023-05-05T05:38:39.500Z,47.43
2023-05-05T05:41:07.566Z,47.21
2023-05-05T05:43:34.705Z,47.00
2023-05-05T05:46:03.123Z,46.96
2023-05-05T05:48:29.950Z,46.77
2023-05-05T05:50:57.150Z,46.65
2023-05-05T05:53:24.463Z,46.55
2023-05-05T05:55:52.301Z,46.53
2023-05-05T05:58:19.543Z,46.48
2023-05-05T06:00:46.687Z,46.30
2023-05-05T06:03:13.547Z,46.19
2023-05-05T06:05:41.841Z,45.93
2023-05-05T06:08:08.628Z,45.65
2023-05-05T06:10:39.883Z,45.58
2023-05-05T06:13:09.988Z,45.06
2023-05-05T06:15:39.024Z,44.92
2023-05-05T06:18:05.808Z,44.77
2023-05-05T06:20:32.528Z,44.48
2023-05-05T06:22:59.163Z,44.38
2023-05-05T06:25:26.325Z,44.30
2023-05-05T06:27:52.975Z,44.25
2023-05-05T06:30:19.749Z,44.00
2023-05-05T06:32:46.973Z,43.73
2023-05-05T06:35:13.528Z,43.30
2023-05-05T06:37:40.106Z,43.06
2023-05-05T06:40:08.014Z,43.20
2023-05-05T06:42:35.970Z,43.32
2023-05-05T06:45:04.082Z,43.30
2023-05-05T06:47:30.860Z,42.97
2023-05-05T06:49:57.653Z,42.90
2023-05-05T06:52:24.344Z,42.97
2023-05-05T06:54:50.895Z,42.84
2023-05-05T06:57:17.534Z,42.43
2023-05-05T06:59:44.097Z,41.88
2023-05-05T07:02:10.650Z,41.66
2023-05-05T07:04:37.194Z,41.48
2023-05-05T07:07:03.876Z,40.96
2023-05-05T07:09:30.450Z,40.60
2023-05-05T07:11:57.137Z,40.16
2023-05-05T07:14:24.474Z,39.77
2023-05-05T07:16:51.682Z,39.61
2023-05-05T07:19:18.528Z,39.33
2023-05-05T07:21:45.158Z,39.14
2023-05-05T07:24:11.658Z,38.89
2023-05-05T07:26:38.337Z,38.96
2023-05-05T07:29:07.173Z,39.07
2023-05-05T07:31:33.921Z,38.91
2023-05-05T07:34:00.519Z,38.72
2023-05-05T07:36:27.966Z,38.08
2023-05-05T07:38:55.027Z,37.72
2023-05-05T07:41:21.661Z,37.67
2023-05-05T07:43:48.235Z,37.17
2023-05-05T07:46:14.973Z,37.11
2023-05-05T07:48:42.075Z,36.77
2023-05-05T07:51:09.476Z,36.13
2023-05-05T07:53:36.356Z,36.22
2023-05-05T07:56:03.612Z,36.39
2023-05-05T07:58:30.176Z,36.11
2023-05-05T08:00:56.830Z,35.74
2023-05-05T08:03:24.781Z,35.21
2023-05-05T08:05:54.505Z,35.10
2023-05-05T08:08:24.723Z,34.71
2023-05-05T08:10:53.076Z,34.33
2023-05-05T08:13:20.104Z,34.21
2023-05-05T08:15:46.849Z,34.12
2023-05-05T08:18:14.830Z,33.74
2023-05-05T08:20:41.734Z,33.03
2023-05-05T08:23:08.450Z,32.46
2023-05-05T08:25:35.164Z,32.15
2023-05-05T08:28:01.776Z,32.43
2023-05-05T08:30:28.722Z,31.92
2023-05-05T08:32:55.399Z,32.04
2023-05-05T08:35:22.312Z,31.55
2023-05-05T08:37:50.656Z,31.52
2023-05-05T08:40:17.247Z,31.22
2023-05-05T08:42:46.419Z,30.85
2023-05-05T08:45:13.135Z,30.49
2023-05-05T08:47:40.267Z,30.26
2023-05-05T08:50:10.400Z,30.07
2023-05-05T08:52:52.521Z,30.21
2023-05-05T08:55:28.106Z,30.44
2023-05-05T08:57:57.211Z,30.57
2023-05-05T09:00:27.017Z,30.50
2023-05-05T09:02:57.274Z,30.41
2023-05-05T09:05:26.811Z,30.00
2023-05-05T09:07:53.456Z,30.15
2023-05-05T09:10:20.153Z,30.36
2023-05-05T09:12:46.901Z,30.77
2023-05-05T09:15:15.104Z,30.68
2023-05-05T09:17:42.308Z,30.49
2023-05-05T09:20:14.356Z,30.55
2023-05-05T09:22:42.942Z,30.13
2023-05-05T09:25:12.026Z,30.13
2023-05-05T09:27:48.996Z,30.56
2023-05-05T09:30:18.517Z,31.16
2023-05-05T09:32:56.197Z,31.06
2023-05-05T09:35:23.426Z,31.08
2023-05-05T09:37:51.571Z,30.62
2023-05-05T09:40:19.991Z,29.94
2023-05-05T09:42:48.703Z,29.41
2023-05-05T09:45:20.838Z,29.36
2023-05-05T09:47:48.441Z,29.29
2023-05-05T09:50:18.456Z,29.48
2023-05-05T09:53:00.658Z,29.85
2023-05-05T09:55:27.513Z,30.51
2023-05-05T09:57:54.111Z,30.80
2023-05-05T10:00:21.166Z,30.40
2023-05-05T10:02:47.776Z,30.33
2023-05-05T10:05:17.484Z,30.25
2023-05-05T10:07:46.926Z,29.66
2023-05-05T10:10:16.766Z,29.30
2023-05-05T10:12:47.177Z,29.31
2023-05-05T10:15:15.908Z,28.94
2023-05-05T10:18:05.230Z,28.78
2023-05-05T10:20:33.395Z,28.50
2023-05-05T10:23:04.676Z,27.88
2023-05-05T10:25:39.201Z,27.45
2023-05-05T10:28:08.100Z,27.38
2023-05-05T10:30:43.171Z,27.22
2023-05-05T10:33:31.143Z,27.55
2023-05-05T10:36:02.487Z,27.79
2023-05-05T10:38:33.901Z,27.78
2023-05-05T10:41:02.178Z,27.99
2023-05-05T10:43:30.716Z,28.21
2023-05-05T10:45:58.658Z,28.27
2023-05-05T10:48:34.546Z,28.60
2023-05-05T10:51:39.564Z,29.42
2023-05-05T10:54:18.029Z,29.51
2023-05-05T10:56:46.700Z,29.42
2023-05-05T10:59:40.702Z,29.01
2023-05-05T11:02:21.168Z,29.04
2023-05-05T11:05:16.835Z,29.20
2023-05-05T11:07:46.056Z,29.33
2023-05-05T11:10:15.286Z,29.32
2023-05-05T11:12:54.114Z,29.35
2023-05-05T11:15:30.313Z,29.21
2023-05-05T11:18:05.742Z,29.13
2023-05-05T11:20:39.955Z,29.10
2023-05-05T11:23:06.800Z,29.29
2023-05-05T11:25:40.937Z,29.12
2023-05-05T11:28:13.568Z,28.63
2023-05-05T11:30:59.184Z,28.45
2023-05-05T11:33:31.579Z,28.23
2023-05-05T11:36:09.395Z,28.74
2023-05-05T11:38:38.961Z,28.66
2023-05-05T11:41:12.736Z,28.31
2023-05-05T11:43:41.821Z,28.23
2023-05-05T11:46:17.002Z,28.18
2023-05-05T11:48:48.095Z,28.08
2023-05-05T11:51:16.602Z,28.36
2023-05-05T11:53:44.732Z,28.20
2023-05-05T11:56:14.147Z,27.89
2023-05-05T11:58:41.883Z,27.14
2023-05-05T12:01:08.928Z,27.23
2023-05-05T12:03:39.496Z,27.61
2023-05-05T12:06:07.781Z,28.07
2023-05-05T12:08:38.296Z,28.22
2023-05-05T12:11:07.772Z,28.38
2023-05-05T12:13:35.161Z,28.44
2023-05-05T12:16:12.960Z,28.55
2023-05-05T12:18:40.313Z,28.69
2023-05-05T12:21:20.544Z,28.66
2023-05-05T12:23:47.285Z,28.35
2023-05-05T12:26:31.702Z,28.70
2023-05-05T12:28:59.563Z,28.72
2023-05-05T12:31:36.808Z,29.03
2023-05-05T12:34:08.458Z,29.12
2023-05-05T12:36:38.952Z,29.07
2023-05-05T12:39:05.607Z,28.85
2023-05-05T12:41:33.004Z,28.68
2023-05-05T12:44:01.538Z,28.62
2023-05-05T12:46:32.175Z,28.85
2023-05-05T12:49:00.306Z,28.83
2023-05-05T12:51:28.226Z,28.94
2023-05-05T12:54:09.875Z,29.22
2023-05-05T12:56:38.556Z,29.31
2023-05-05T12:59:08.018Z,29.60
2023-05-05T13:01:50.802Z,29.65
2023-05-05T13:04:18.713Z,29.70
2023-05-05T13:06:47.429Z,29.57
2023-05-05T13:09:25.177Z,29.48
2023-05-05T13:11:52.998Z,29.36
2023-05-05T13:14:19.840Z,29.44
2023-05-05T13:16:46.849Z,29.74
2023-05-05T13:19:13.458Z,30.21
2023-05-05T13:21:42.347Z,30.31
2023-05-05T13:24:25.375Z,30.14
2023-05-05T13:26:56.590Z,30.06
2023-05-05T13:29:25.584Z,29.96
2023-05-05T13:31:55.479Z,29.96
2023-05-05T13:34:22.257Z,29.93
2023-05-05T13:36:48.893Z,30.08
2023-05-05T13:39:15.760Z,30.08
2023-05-05T13:41:44.838Z,30.39
2023-05-05T13:44:12.416Z,30.65
2023-05-05T13:46:39.025Z,30.94
2023-05-05T13:49:05.688Z,31.37
2023-05-05T13:51:34.639Z,31.35
2023-05-05T13:54:01.518Z,31.26
2023-05-05T13:56:28.430Z,31.32
2023-05-05T13:58:55.061Z,31.25
2023-05-05T14:01:21.730Z,31.62
2023-05-05T14:03:48.319Z,31.84
2023-05-05T14:06:14.928Z,31.59
2023-05-05T14:08:41.555Z,31.74
2023-05-05T14:11:08.190Z,31.81
2023-05-05T14:13:34.776Z,31.96
2023-05-05T14:16:01.529Z,32.21
2023-05-05T14:18:28.459Z,32.08
2023-05-05T14:20:55.115Z,32.31
2023-05-05T14:23:21.803Z,32.14
2023-05-05T14:25:48.527Z,32.22
2023-05-05T14:28:15.163Z,32.42
2023-05-05T14:30:41.969Z,32.33
2023-05-05T14:33:08.638Z,32.60
2023-05-05T14:35:35.344Z,32.57
2023-05-05T14:38:01.949Z,32.92
2023-05-05T14:40:30.318Z,32.88
2023-05-05T14:42:57.906Z,32.80
2023-05-05T14:45:24.567Z,33.03
2023-05-05T14:47:51.223Z,32.89
2023-05-05T14:50:17.810Z,32.97
2023-05-05T14:52:44.576Z,33.15
2023-05-05T14:55:11.966Z,33.15
2023-05-05T14:57:38.788Z,33.19
2023-05-05T15:00:09.451Z,33.33
2023-05-05T15:02:36.118Z,33.58
2023-05-05T15:05:02.804Z,33.66
2023-05-05T15:07:29.904Z,33.49
2023-05-05T15:09:56.494Z,33.58
2023-05-05T15:12:23.239Z,33.68
2023-05-05T15:14:49.805Z,33.81
2023-05-05T15:17:16.489Z,33.72
2023-05-05T15:19:43.104Z,34.04
2023-05-05T15:22:09.817Z,33.98
2023-05-05T15:24:37.255Z,33.87
2023-05-05T15:27:04.214Z,34.06
2023-05-05T15:29:31.200Z,34.29
2023-05-05T15:31:59.168Z,34.50
2023-05-05T15:34:26.250Z,34.67
2023-05-05T15:36:52.815Z,34.57
2023-05-05T15:39:19.487Z,34.60
2023-05-05T15:41:46.091Z,34.65
2023-05-05T15:44:12.804Z,34.91
2023-05-05T15:46:39.734Z,34.98
2023-05-05T15:49:06.686Z,35.07
2023-05-05T15:51:33.270Z,35.08
2023-05-05T15:54:00.321Z,35.29
2023-05-05T15:56:29.850Z,35.24
2023-05-05T15:58:56.960Z,35.32
2023-05-05T16:01:23.662Z,35.14
2023-05-05T16:03:50.446Z,35.10
2023-05-05T16:06:17.260Z,35.26
2023-05-05T16:08:43.906Z,35.32
2023-05-05T16:11:10.806Z,35.27
2023-05-05T16:13:39.247Z,35.05
2023-05-05T16:16:06.860Z,35.34
2023-05-05T16:18:33.801Z,35.19
2023-05-05T16:21:00.737Z,35.24
2023-05-05T16:23:27.416Z,35.27
2023-05-05T16:25:54.030Z,35.38
2023-05-05T16:28:20.762Z,35.31
2023-05-05T16:30:47.374Z,35.29
2023-05-05T16:33:14.158Z,35.36
2023-05-05T16:35:44.139Z,35.32
2023-05-05T16:38:10.680Z,35.64
2023-05-05T16:40:37.907Z,35.83
2023-05-05T16:43:04.903Z,35.93
2023-05-05T16:45:31.543Z,36.11
2023-05-05T16:47:58.224Z,36.06
2023-05-05T16:50:24.934Z,36.16
2023-05-05T16:52:51.898Z,36.17
2023-05-05T16:55:19.437Z,36.38
2023-05-05T16:57:47.259Z,36.37
2023-05-05T17:00:14.593Z,36.50
2023-05-05T17:02:41.443Z,36.57
2023-05-05T17:05:08.939Z,36.73
2023-05-05T17:07:35.912Z,36.79
2023-05-05T17:10:02.584Z,36.91
2023-05-05T17:12:29.216Z,37.05
2023-05-05T17:14:55.980Z,37.11
2023-05-05T17:17:22.860Z,37.19
2023-05-05T17:19:49.494Z,37.33
2023-05-05T17:22:16.559Z,37.45
2023-05-05T17:24:43.258Z,37.56
2023-05-05T17:27:09.951Z,37.66
2023-05-05T17:29:41.312Z,37.88
2023-05-05T17:32:09.266Z,38.00
2023-05-05T17:34:36.488Z,38.01
2023-05-05T17:37:03.432Z,38.26
2023-05-05T17:39:30.912Z,38.32
2023-05-05T17:41:57.781Z,38.49
2023-05-05T17:44:24.536Z,38.79
2023-05-05T17:46:51.369Z,38.83
2023-05-05T17:49:18.103Z,38.92
2023-05-05T17:51:44.740Z,38.96
2023-05-05T17:54:11.689Z,39.18
2023-05-05T17:56:38.434Z,39.32
2023-05-05T17:59:05.116Z,39.35
2023-05-05T18:01:31.821Z,39.36
2023-05-05T18:03:58.615Z,39.56
2023-05-05T18:06:25.698Z,39.75
2023-05-05T18:08:52.818Z,39.87
2023-05-05T18:11:21.260Z,39.91
2023-05-05T18:13:47.903Z,40.02
2023-05-05T18:16:14.538Z,40.14
2023-05-05T18:18:41.710Z,40.24
2023-05-05T18:21:12.180Z,40.44
2023-05-05T18:23:40.170Z,40.52
2023-05-05T18:26:07.630Z,40.65
2023-05-05T18:28:34.233Z,40.76
2023-05-05T18:31:01.043Z,40.91
2023-05-05T18:33:28.001Z,40.98
2023-05-05T18:35:54.705Z,41.12
2023-05-05T18:38:21.613Z,41.20
2023-05-05T18:40:48.324Z,41.38
2023-05-05T18:43:15.020Z,41.48
2023-05-05T18:45:41.948Z,41.63
2023-05-05T18:48:08.833Z,41.76
2023-05-05T18:50:36.769Z,41.86
2023-05-05T18:53:03.831Z,41.94
2023-05-05T18:55:30.406Z,42.02
2023-05-05T18:57:56.990Z,42.17
2023-05-05T19:00:24.564Z,42.25
2023-05-05T19:02:51.546Z,42.41
2023-05-05T19:05:18.515Z,42.53
2023-05-05T19:07:45.755Z,42.64
2023-05-05T19:10:12.586Z,42.67
2023-05-05T19:12:39.262Z,42.71
2023-05-05T19:15:07.014Z,42.77
2023-05-05T19:17:34.141Z,42.95
2023-05-05T19:20:01.222Z,43.09
2023-05-05T19:22:30.081Z,43.22
2023-05-05T19:24:56.821Z,43.36
2023-05-05T19:27:23.607Z,43.52
2023-05-05T19:29:52.608Z,43.61
2023-05-05T19:32:23.198Z,43.62
2023-05-05T19:34:54.423Z,43.70
2023-05-05T19:37:21.720Z,43.84
2023-05-05T19:39:49.621Z,43.94
2023-05-05T19:42:17.456Z,43.95
2023-05-05T19:44:44.151Z,44.09
2023-05-05T19:47:11.320Z,44.26
2023-05-05T19:49:38.116Z,44.36
2023-05-05T19:52:05.085Z,44.42
2023-05-05T19:54:31.644Z,44.58
2023-05-05T19:56:59.509Z,44.60
2023-05-05T19:59:26.211Z,44.72
2023-05-05T20:01:53.023Z,44.82
2023-05-05T20:04:19.751Z,44.80
2023-05-05T20:06:46.582Z,44.86
2023-05-05T20:09:13.186Z,45.02
2023-05-05T20:11:39.872Z,45.09
2023-05-05T20:14:06.603Z,45.19
2023-05-05T20:16:33.626Z,45.23
2023-05-05T20:19:00.463Z,45.34
2023-05-05T20:21:27.171Z,45.42
2023-05-05T20:23:56.653Z,45.46
2023-05-05T20:26:24.529Z,45.51
2023-05-05T20:28:51.485Z,45.67
2023-05-05T20:31:18.473Z,45.75
2023-05-05T20:33:45.356Z,45.71
2023-05-05T20:36:12.066Z,45.86
2023-05-05T20:38:38.716Z,45.92
2023-05-05T20:41:06.069Z,45.92
2023-05-05T20:43:32.724Z,45.95
2023-05-05T20:45:59.646Z,46.04
2023-05-05T20:48:26.358Z,46.07
2023-05-05T20:50:53.084Z,46.05
2023-05-05T20:53:21.022Z,46.20
2023-05-05T20:55:47.780Z,46.33
2023-05-05T20:58:14.491Z,46.38
2023-05-05T21:00:41.338Z,46.43
2023-05-05T21:03:08.075Z,46.48
2023-05-05T21:05:36.142Z,46.56
2023-05-05T21:08:02.841Z,46.57
2023-05-05T21:10:29.624Z,46.73
2023-05-05T21:12:56.368Z,46.78
2023-05-05T21:15:23.330Z,46.82
2023-05-05T21:17:50.204Z,46.96
2023-05-05T21:20:18.825Z,47.00
2023-05-05T21:22:46.284Z,47.11
2023-05-05T21:25:16.265Z,47.22
2023-05-05T21:27:44.152Z,47.21
2023-05-05T21:30:11.588Z,47.22
2023-05-05T21:32:39.536Z,47.31
2023-05-05T21:35:07.788Z,47.38
2023-05-05T21:37:36.863Z,47.44
2023-05-05T21:40:03.853Z,47.58
2023-05-05T21:42:30.994Z,47.58
2023-05-05T21:44:57.931Z,47.65
2023-05-05T21:47:24.608Z,47.62
2023-05-05T21:49:51.522Z,47.72
2023-05-05T21:52:18.307Z,47.77
2023-05-05T21:54:45.228Z,47.78
2023-05-05T21:57:14.123Z,47.77
2023-05-05T21:59:41.396Z,47.86
2023-05-05T22:02:08.342Z,47.89
2023-05-05T22:04:35.794Z,47.95
2023-05-05T22:07:02.470Z,48.01
2023-05-05T22:09:29.274Z,47.98
2023-05-05T22:11:57.405Z,48.05
2023-05-05T22:14:23.970Z,48.21
2023-05-05T22:16:51.140Z,48.35
2023-05-05T22:19:18.175Z,48.33
2023-05-05T22:21:44.951Z,48.39
2023-05-05T22:24:11.614Z,48.38
2023-05-05T22:26:43.242Z,48.45
2023-05-05T22:29:11.559Z,48.62
2023-05-05T22:31:38.802Z,48.70
2023-05-05T22:34:05.554Z,48.75
2023-05-05T22:36:32.329Z,48.83
2023-05-05T22:38:59.200Z,48.85
2023-05-05T22:41:26.297Z,48.81
2023-05-05T22:43:53.201Z,48.89
2023-05-05T22:46:19.845Z,48.99
2023-05-05T22:48:46.804Z,49.06
2023-05-05T22:51:13.472Z,49.05
2023-05-05T22:53:40.351Z,49.07
2023-05-05T22:56:07.327Z,49.14
2023-05-05T22:58:34.098Z,49.26
2023-05-05T23:01:00.944Z,49.27
2023-05-05T23:03:27.656Z,49.28
2023-05-05T23:05:54.473Z,49.30
2023-05-05T23:08:21.874Z,49.45
2023-05-05T23:10:48.523Z,49.50
2023-05-05T23:13:15.221Z,49.53
2023-05-05T23:15:41.788Z,49.66
2023-05-05T23:18:08.635Z,49.73
2023-05-05T23:20:40.361Z,49.74
2023-05-05T23:23:06.988Z,49.86
2023-05-05T23:25:33.864Z,49.95
2023-05-05T23:28:00.577Z,49.97
2023-05-05T23:30:27.249Z,50.13
2023-05-05T23:32:54.825Z,50.22
2023-05-05T23:35:21.653Z,50.23
2023-05-05T23:37:49.159Z,50.31
2023-05-05T23:40:15.731Z,50.43
2023-05-05T23:42:42.283Z,50.42
2023-05-05T23:45:09.701Z,50.43
2023-05-05T23:47:36.727Z,50.50
2023-05-05T23:50:03.626Z,50.58
2023-05-05T23:52:30.212Z,50.66
2023-05-05T23:54:56.690Z,50.73
2023-05-05T23:57:23.395Z,50.84
2023-05-05T23:59:49.904Z,50.83
